Loging...

KPDC, Korea Polar Data Center

Korea Polar Data Center Scientific observations and results from Antarctica shall
be exchanged and made freely available

Keyword Search

Advanced Search

Search 2,719 data out of 28,571

Metadata Search Results1
No. Title Reg. Date
1 [KOPRI-KVH-00002626]Phyllophora antarctica A.Gepp & E.S.Gepp 1905 2020-11-23
2 [KOPRI-KVH-00002627]Phyllophora antarctica A.Gepp & E.S.Gepp 1905 2020-11-23
3 [KOPRI-KVH-00002624]Phyllophora antarctica A.Gepp & E.S.Gepp 1905 2020-11-23
4 [KOPRI-KVH-00002625]Phyllophora antarctica A.Gepp & E.S.Gepp 1905 2020-11-23
5 [KOPRI-KVH-00002622]Phyllophora antarctica A.Gepp & E.S.Gepp 1905 2020-11-23
6 [KOPRI-KVH-00002623]Phyllophora antarctica A.Gepp & E.S.Gepp 1905 2020-11-23
7 [KOPRI-KPDC-00001615]Foraging trips of Chinstrap penguin and Gentoo penguin breeding at Ardley Island and Narebski Point 2020-11-19
8 [KOPRI-KVH-00002617]Micractinium singularis H. Chae, H.-G. Choi & J. H. Kim (KOPRI-KSF0094) 2020-11-18
9 [KOPRI-KPDC-00001614]Weddell seal placenta and hair samples 2020-11-18
10 [KOPRI-KPDC-00001612]Soil metagenome in the foreland of Styggedalsbreen glacier 2020-11-17
11 [KOPRI-KPDC-00001598]NGS sequence for RNAseq analysis: Comparison of two Deschampsia antarctica populations of Barton Peninsula and Antarctic Peninsula 2020-11-16
12 [KOPRI-KPDC-00001604]Simulation of photosyntehtic response of Antarctic moss, Sanionia uncinata, by temperature change 2020-11-16
13 [KOPRI-KPDC-00001603]Simulation of photosynthetic responses of Antarctic moss, Sanionia uncinata, by relative humidity change 2020-11-16
14 [KOPRI-KPDC-00001599]Antarctic macroalgal herbarium registration list 2020-11-16
15 [KOPRI-KPDC-00001592]Genes involved in metabolites production (2020) 2020-11-13
16 [KOPRI-KPDC-00001587]Metabolite Library (2020) 2020-11-12
17 [KOPRI-KPDC-00001560]Phocid seal tissue samples 2020-11-12
18 [KOPRI-KPDC-00001578]Phocid seal blood and placenta samples 2020-11-12
19 [KOPRI-KVH-00002621]Micractinium simplicissimum H. Chae, H.-G. Choi & J. H. Kim (KOPRI-KSF0127) 2020-11-11
20 [KOPRI-KVH-00002620]Micractinium simplicissimum H. Chae, H.-G. Choi & J. H. Kim (KOPRI-KSF0114) 2020-11-11
21 [KOPRI-KVH-00002619]Micractinium simplicissimum H. Chae, H.-G. Choi & J. H. Kim (KOPRI-KSF0100) 2020-11-11
22 [KOPRI-KVH-00002616]Micractinium variabile H. Chae, H.-G. Choi & J. H. Kim (KOPRI-KSF0085) 2020-11-11
23 [KOPRI-KVH-00002618]Micractinium simplicissimum H. Chae, H.-G. Choi & J. H. Kim (KOPRI-KSF0112) 2020-11-11
24 [KOPRI-KPDC-00001561]Extract Library (2020) 2020-11-11
25 [KOPRI-KPDC-00001545]The complete mitochondrial genome of the fourhorn sculpin Triglopsis quadricornis (Perciformes, Cottidae) from Sirius Passet 2020-11-10
26 [KOPRI-KPDC-00001537]Biogeochemical data from David glacier 2020-11-10
27 [KOPRI-KVH-00001990]Dasysiphonia chejuensis Lee et West (KOPRI-DCD1001, 1003) 2020-11-05
28 [KOPRI-KPDC-00001497]Lichen samples from King George Island collected in 2020 2020-10-26
29 [KOPRI-KPDC-00001461]The draft genome of an Antarctic moss Sanionia uncinata 2020-09-17
30 [KOPRI-KVH-00002615]Bryum sp. (KMR5045) 2020-07-21
31 [KOPRI-KVH-00002614]Sphaerophorus globosus (Huds.) Vain. (2020LHS-007) 2020-06-09
32 [KOPRI-KVH-00002613]Psoroma tenue Henssen (2020LHS-006) 2020-06-09
33 [KOPRI-KVH-00002612]Cladonia cornuta (L.) Hoffm. (2020LHS-005) 2020-06-09
34 [KOPRI-KVH-00002611]Cladonia gracilis (L.) Willd. (2020LHS-004) 2020-06-09
35 [KOPRI-KVH-00002610]Ochrolechia frigida (Sw.) Lynge (2020LHS-003) 2020-06-09
36 [KOPRI-KVH-00002609]Cladonia borealis S. Stenroos (2020LHS-002) 2020-06-09
37 [KOPRI-KVH-00002608]Cladonia pyxidata (L.) Hoffm. (2020LHS-001) 2020-06-09
38 [KOPRI-KVH-00002390]Monostroma hariotii Gain (KOPRI-CH3393) 2019-11-26
39 [KOPRI-KVH-00002240]Monostroma hariotii Gain (KOPRI-CH3292) 2019-11-26
40 [KOPRI-KVH-00002388]Monostroma hariotii Gain (KOPRI-CH3391) 2019-11-26
41 [KOPRI-KVH-00002387]Monostroma hariotii Gain (KOPRI-CH3390) 2019-11-26
42 [KOPRI-KVH-00002386]Monostroma hariotii Gain (KOPRI-CH3389) 2019-11-26
43 [KOPRI-KVH-00002385]Monostroma hariotii Gain (KOPRI-CH3388) 2019-11-26
44 [KOPRI-KVH-00002384]Monostroma hariotii Gain (KOPRI-CH3387) 2019-11-26
45 [KOPRI-KVH-00002383]Monostroma hariotii Gain (KOPRI-CH3386) 2019-11-26
46 [KOPRI-KVH-00002241]Monostroma hariotii Gain (KOPRI-CH3293) 2019-11-26
47 [KOPRI-KVH-00002239]Monostroma hariotii Gain (KOPRI-CH3291) 2019-11-26
48 [KOPRI-KVH-00002238]Monostroma hariotii Gain (KOPRI-CH3290) 2019-11-26
49 [KOPRI-KVH-00002236]Monostroma hariotii Gain (KOPRI-CH3288) 2019-11-26
50 [KOPRI-KVH-00002206]Monostroma hariotii Gain (KOPRI-CH3258) 2019-11-26
51 [KOPRI-KVH-00002205]Monostroma hariotii Gain (KOPRI-CH3257) 2019-11-26
52 [KOPRI-KVH-00002204]Monostroma hariotii Gain (KOPRI-CH3256) 2019-11-26
53 [KOPRI-KVH-00002190]Monostroma hariotii on Kallymenia antarctica Gain (KOPRI-CH3241) 2019-11-26
54 [KOPRI-KVH-00002189]Monostroma hariotii Gain (KOPRI-CH3240) 2019-11-26
55 [KOPRI-KVH-00002188]Monostroma hariotii Gain (KOPRI-CH3239) 2019-11-26
56 [KOPRI-KVH-00002187]Monostroma hariotii Gain (KOPRI-CH3238) 2019-11-26
57 [KOPRI-KVH-00002186]Monostroma hariotii on Iridaea cordata Gain (KOPRI-CH3237) 2019-11-26
58 [KOPRI-KVH-00002441]Monostroma hariotii Gain (KOPRI-CH3226) 2019-11-26
59 [KOPRI-KVH-00002440]Monostroma hariotii Gain (KOPRI-CH3225) 2019-11-26
60 [KOPRI-KVH-00002439]Monostroma hariotii Gain (KOPRI-CH3224) 2019-11-26
61 [KOPRI-KVH-00002438]Monostroma hariotii Gain (KOPRI-CH3223) 2019-11-26
62 [KOPRI-KVH-00002437]Monostroma hariotii Gain (KOPRI-CH3222) 2019-11-26
63 [KOPRI-KVH-00002436]Monostroma hariotii Gain (KOPRI-CH3221) 2019-11-26
64 [KOPRI-KVH-00002435]Monostroma hariotii Gain (KOPRI-CH3220) 2019-11-26
65 [KOPRI-KVH-00002434]Monostroma hariotii Gain (KOPRI-CH3219) 2019-11-26
66 [KOPRI-KVH-00002433]Monostroma hariotii Gain (KOPRI-CH3218) 2019-11-26
67 [KOPRI-KVH-00002432]Monostroma hariotii Gain (KOPRI-CH3217) 2019-11-26
68 [KOPRI-KVH-00002431]Monostroma hariotii Gain (KOPRI-CH3216) 2019-11-26
69 [KOPRI-KVH-00002237]Monostroma hariotii Gain (KOPRI-CH3289) 2019-11-20
70 [KOPRI-KVH-00002391]Monostroma hariotii Gain (KOPRI-CH3394) 2019-11-20
71 [KOPRI-KVH-00002412]Gigartina skottsbergii Setchell et Gardner (KOPRI-CH3446) 2019-11-20
72 [KOPRI-KVH-00002585]Desmarestia anceps R.L. Moe & P.C. Silver (KOPRI-CH3566) 2019-11-20
73 [KOPRI-KVH-00002525]Monostroma hariotii Gain (KOPRI-CH3577) 2019-11-20
74 [KOPRI-KVH-00002526]Monostroma hariotii Gain (KOPRI-CH3578) 2019-11-20
75 [KOPRI-KVH-00002606]Monostroma hariotii Gain (KOPRI-CH3641) 2019-11-20
76 [KOPRI-KVH-00002602]Phaeurus antarcticus Skottsberg (KOPRI-CH3640) 2019-11-20
77 [KOPRI-KVH-00002413]Gigartina skottsbergii Setchell et Gardner (KOPRI-CH3447) 2019-11-19
78 [KOPRI-KVH-00002414]Gigartina skottsbergii Setchell et Gardner (KOPRI-CH3448) 2019-11-19
79 [KOPRI-KVH-00002487]Gigartina skottsbergii Setchell et Gardner (KOPRI-CH3534) 2019-11-19
80 [KOPRI-KVH-00002587]Kallymenia antarctica Hariot (KOPRI-CH3568) 2019-11-19
81 [KOPRI-KVH-00002593]Phyllophora antarctica Skottsberg (KOPRI-CH3633) 2019-11-19
82 [KOPRI-KVH-00002594]Phyllophora antarctica Skottsberg (KOPRI-CH3634) 2019-11-19
83 [KOPRI-KVH-00002595]Phyllophora antarctica Skottsberg (KOPRI-CH3635) 2019-11-19
84 [KOPRI-KVH-00002596]Phyllophora antarctica Skottsberg (KOPRI-CH3636) 2019-11-19
85 [KOPRI-KVH-00002597]Phyllophora antarctica Skottsberg (KOPRI-CH3637) 2019-11-19
86 [KOPRI-KVH-00002598]Phyllophora antarctica Skottsberg (KOPRI-CH3638) 2019-11-19
87 [KOPRI-KVH-00002599]Phyllophora antarctica Skottsberg (KOPRI-CH3639) 2019-11-19
88 [KOPRI-KVH-00002590]Iridaea cordata (Turner) Bory de Saint-Vincent (KOPRI-CH3630) 2019-11-19
89 [KOPRI-KPDC-00001293]Genome sequence of Paenibacillus sp C1 2019-11-08
90 [KOPRI-KPDC-00001292]Genome sequence of Paenibacillus sp R4 2019-11-08
91 [KOPRI-KVH-00002592]Iridaea cordata (Turner) Bory de Saint-Vincent (KOPRI-CH3632) 2019-11-05
92 [KOPRI-KVH-00002604]Iridaea cordata (Turner) Bory de Saint-Vincent (KOPRI-CH3244) 2019-11-05
93 [KOPRI-KVH-00002591]Iridaea cordata (Turner) Bory de Saint-Vincent (KOPRI-CH3631) 2019-11-05
94 [KOPRI-KVH-00002442]Palmaria decipiens (Reinsch) R.W.Ricker (KOPRI-CH3227) 2019-10-30
95 [KOPRI-KVH-00002443]Adenocystis utricularis (Bory) Skottsberg (KOPRI-CH3228) 2019-10-30
96 [KOPRI-KVH-00002444]Adenocystis utricularis (Bory) Skottsberg (KOPRI-CH3229) 2019-10-30
97 [KOPRI-KVH-00002389]Monostroma hariotii Gain (KOPRI-CH3392) 2019-10-29
98 [KOPRI-KVH-00002607]Phaeurus antarcticus 2019-10-29
99 [KOPRI-KVH-00002605]Iridaea cordata 2019-10-22
100 [KOPRI-KVH-00002603]Phaeurus antarcticus 2019-10-22